createdAt,value
2019-05-16T00:04:34.372Z,54.98
2019-05-16T00:09:37.996Z,54.99
2019-05-16T00:14:39.410Z,55.11
2019-05-16T00:19:40.977Z,55.18
2019-05-16T00:24:42.641Z,55.29
2019-05-16T00:29:44.257Z,55.22
2019-05-16T00:34:47.686Z,55.32
2019-05-16T00:39:49.290Z,55.47
2019-05-16T00:44:51.124Z,55.67
2019-05-16T00:49:52.675Z,55.69
2019-05-16T00:54:54.239Z,55.69
2019-05-16T00:59:55.772Z,55.71
2019-05-16T01:04:58.993Z,55.64
2019-05-16T01:10:00.681Z,55.82
2019-05-16T01:15:02.660Z,55.97
2019-05-16T01:20:04.319Z,56.24
2019-05-16T01:25:06.115Z,56.32
2019-05-16T01:30:09.088Z,56.57
2019-05-16T01:35:11.195Z,56.63
2019-05-16T01:40:12.939Z,56.86
2019-05-16T01:45:15.209Z,56.86
2019-05-16T01:50:18.068Z,56.78
2019-05-16T01:55:19.929Z,56.71
2019-05-16T02:00:25.199Z,56.92
2019-05-16T02:05:25.161Z,56.98
2019-05-16T02:10:28.412Z,56.90
2019-05-16T02:15:30.078Z,57.12
2019-05-16T02:20:31.641Z,57.50
2019-05-16T02:25:33.195Z,57.66
2019-05-16T02:30:34.788Z,57.94
2019-05-16T02:35:36.481Z,58.18
2019-05-16T02:40:38.160Z,58.26
2019-05-16T02:45:41.547Z,58.25
2019-05-16T02:50:43.494Z,58.08
2019-05-16T02:55:45.099Z,57.83
2019-05-16T03:00:46.653Z,57.88
2019-05-16T03:05:50.806Z,58.04
2019-05-16T03:10:52.382Z,58.09
2019-05-16T03:15:55.383Z,58.20
2019-05-16T03:21:00.586Z,58.44
2019-05-16T03:26:02.330Z,59.03
2019-05-16T03:31:05.598Z,59.20
2019-05-16T03:36:14.035Z,58.76
2019-05-16T03:41:11.631Z,59.19
2019-05-16T03:46:13.430Z,59.37
2019-05-16T03:51:14.985Z,58.98
2019-05-16T03:56:16.547Z,59.01
2019-05-16T04:01:20.847Z,59.08
2019-05-16T04:06:22.231Z,59.17
2019-05-16T04:11:24.201Z,59.25
2019-05-16T04:16:25.749Z,59.35
2019-05-16T04:21:27.342Z,59.47
2019-05-16T04:26:30.902Z,59.59
2019-05-16T04:31:32.436Z,59.70
2019-05-16T04:36:33.977Z,59.92
2019-05-16T04:41:35.639Z,60.02
2019-05-16T04:46:40.848Z,60.13
2019-05-16T04:51:41.653Z,60.23
2019-05-16T04:56:43.401Z,60.39
2019-05-16T05:01:44.957Z,60.52
2019-05-16T05:06:46.536Z,60.64
2019-05-16T05:11:48.082Z,60.81
2019-05-16T05:16:50.763Z,60.97
2019-05-16T05:21:52.506Z,61.09
2019-05-16T05:26:54.195Z,61.23
2019-05-16T05:31:56.053Z,61.32
2019-05-16T05:37:00.224Z,61.47
2019-05-16T05:42:01.314Z,61.55
2019-05-16T05:47:02.994Z,61.69
2019-05-16T05:52:04.663Z,61.84
2019-05-16T05:57:06.344Z,61.93
2019-05-16T06:02:07.899Z,62.07
2019-05-16T06:07:10.170Z,62.17
2019-05-16T06:12:12.014Z,62.26
2019-05-16T06:17:13.573Z,62.38
2019-05-16T06:22:15.119Z,62.50
2019-05-16T06:27:16.692Z,62.55
2019-05-16T06:32:19.842Z,62.65
2019-05-16T06:37:21.518Z,62.82
2019-05-16T06:42:23.063Z,62.94
2019-05-16T06:47:24.654Z,63.05
2019-05-16T06:52:26.204Z,63.12
2019-05-16T06:57:30.020Z,63.19
2019-05-16T07:02:34.458Z,63.31
2019-05-16T07:07:34.807Z,63.46
2019-05-16T07:12:36.375Z,63.58
2019-05-16T07:17:39.767Z,63.71
2019-05-16T07:22:41.587Z,63.86
2019-05-16T07:27:43.157Z,64.01
2019-05-16T07:32:44.744Z,64.15
2019-05-16T07:37:46.401Z,64.19
2019-05-16T07:42:47.980Z,64.28
2019-05-16T07:47:50.972Z,64.33
2019-05-16T07:52:52.806Z,64.37
2019-05-16T07:57:54.467Z,64.47
2019-05-16T08:02:56.139Z,64.58
2019-05-16T08:07:59.906Z,64.67
2019-05-16T08:18:05.016Z,64.89
2019-05-16T08:23:06.590Z,65.01
2019-05-16T08:28:11.467Z,65.18
2019-05-16T08:33:13.609Z,65.26
2019-05-16T08:38:15.170Z,65.34
2019-05-16T08:43:16.845Z,65.50
2019-05-16T08:48:23.182Z,65.73
2019-05-16T08:50:09.932Z,64.73
2019-05-16T08:53:22.301Z,65.66
2019-05-16T08:58:23.969Z,65.63
2019-05-16T09:03:25.534Z,65.56
2019-05-16T09:08:27.087Z,65.73
2019-05-16T09:13:28.723Z,65.87
2019-05-16T09:18:44.779Z,65.97
2019-05-16T09:23:33.784Z,66.09
2019-05-16T09:28:38.930Z,66.18
2019-05-16T09:33:38.907Z,66.32
2019-05-16T09:38:40.520Z,66.30
2019-05-16T09:43:42.183Z,66.44
2019-05-16T09:48:47.468Z,66.61
2019-05-16T09:53:47.342Z,66.71
2019-05-16T09:58:49.042Z,66.75
2019-05-16T10:03:50.717Z,66.81
2019-05-16T10:08:52.274Z,66.84
2019-05-16T10:13:53.958Z,66.96
2019-05-16T10:18:56.767Z,67.08
2019-05-16T10:23:58.592Z,67.21
2019-05-16T10:29:00.315Z,67.29
2019-05-16T10:34:02.542Z,67.41
2019-05-16T10:39:07.544Z,67.50
2019-05-16T10:44:08.954Z,67.64
2019-05-16T10:49:10.576Z,67.62
2019-05-16T10:54:14.333Z,67.68
2019-05-16T10:59:53.255Z,67.79
2019-05-16T11:04:29.355Z,67.92
2019-05-16T11:09:23.000Z,68.11
2019-05-16T11:14:27.963Z,68.14
2019-05-16T11:19:28.482Z,68.33
2019-05-16T11:24:30.336Z,68.33
2019-05-16T11:29:31.923Z,68.23
2019-05-16T11:34:33.644Z,68.17
2019-05-16T11:39:37.076Z,68.24
2019-05-16T11:44:38.730Z,68.34
2019-05-16T11:49:40.495Z,68.43
2019-05-16T11:54:42.067Z,68.60
2019-05-16T11:59:43.618Z,68.74
2019-05-16T12:04:47.275Z,68.71
2019-05-16T12:09:55.111Z,68.78
2019-05-16T12:14:55.185Z,68.88
2019-05-16T12:19:57.468Z,68.91
2019-05-16T12:24:59.339Z,69.03
2019-05-16T12:30:01.065Z,69.07
2019-05-16T12:35:02.864Z,69.17
2019-05-16T12:40:04.849Z,69.38
2019-05-16T12:45:07.207Z,69.23
2019-05-16T12:50:11.003Z,69.26
2019-05-16T12:55:13.172Z,69.37
2019-05-16T13:00:16.321Z,69.50
2019-05-16T13:05:18.948Z,69.54
2019-05-16T13:10:21.050Z,69.63
2019-05-16T13:15:22.728Z,69.67
2019-05-16T13:20:26.635Z,69.75
2019-05-16T13:25:28.006Z,69.79
2019-05-16T13:30:29.758Z,69.92
2019-05-16T13:35:31.503Z,69.91
2019-05-16T13:40:33.154Z,70.04
2019-05-16T13:45:37.482Z,70.17
2019-05-16T13:50:39.894Z,70.23
2019-05-16T13:55:41.738Z,70.32
2019-05-16T14:00:43.452Z,70.32
2019-05-16T14:05:47.570Z,70.42
2019-05-16T14:10:49.360Z,70.41
2019-05-16T14:15:50.980Z,70.54
2019-05-16T14:20:52.527Z,70.50
2019-05-16T14:25:54.096Z,70.50
2019-05-16T14:30:57.218Z,70.63
2019-05-16T14:35:58.891Z,70.62
2019-05-16T14:41:00.561Z,70.77
2019-05-16T14:46:02.106Z,70.82
2019-05-16T14:51:03.874Z,70.86
2019-05-16T14:56:06.977Z,70.87
2019-05-16T15:01:08.828Z,70.87
2019-05-16T15:06:10.665Z,70.91
2019-05-16T15:11:14.540Z,71.02
2019-05-16T15:16:16.988Z,71.12
2019-05-16T15:21:18.844Z,71.11
2019-05-16T15:26:20.482Z,71.17
2019-05-16T15:31:22.043Z,71.21
2019-05-16T15:36:23.711Z,71.28
2019-05-16T15:41:27.256Z,71.34
2019-05-16T15:46:28.832Z,71.47
2019-05-16T15:51:30.671Z,71.43
2019-05-16T15:56:33.004Z,71.47
2019-05-16T16:01:37.617Z,71.56
2019-05-16T16:06:38.188Z,71.62
2019-05-16T16:11:39.809Z,71.68
2019-05-16T16:16:41.482Z,71.69
2019-05-16T16:21:43.244Z,71.70
2019-05-16T16:26:46.914Z,71.75
2019-05-16T16:31:48.435Z,71.79
2019-05-16T16:36:50.030Z,71.86
2019-05-16T16:41:51.740Z,71.90
2019-05-16T16:46:53.375Z,71.97
2019-05-16T16:51:57.265Z,72.00
2019-05-16T16:56:58.573Z,72.08
2019-05-16T17:02:00.339Z,72.19
2019-05-16T17:07:01.951Z,72.14
2019-05-16T17:12:03.760Z,72.11
2019-05-16T17:17:07.101Z,72.07
2019-05-16T17:22:17.089Z,72.19
2019-05-16T17:27:12.625Z,72.28
2019-05-16T17:32:16.547Z,72.36
2019-05-16T17:37:17.896Z,72.40
2019-05-16T17:42:19.748Z,72.52
2019-05-16T17:47:21.463Z,72.62
2019-05-16T17:52:23.055Z,72.64
2019-05-16T17:57:24.737Z,72.64
2019-05-16T18:02:26.694Z,72.67
2019-05-16T18:07:28.676Z,72.57
2019-05-16T18:12:30.302Z,72.63
2019-05-16T18:17:31.890Z,72.72
2019-05-16T18:22:33.518Z,72.73
2019-05-16T18:27:37.390Z,72.74
2019-05-16T18:32:38.574Z,72.76
2019-05-16T18:37:40.139Z,72.86
2019-05-16T18:42:41.729Z,72.86
2019-05-16T18:47:43.395Z,72.88
2019-05-16T18:52:47.051Z,72.80
2019-05-16T18:57:48.659Z,72.79
2019-05-16T19:02:50.305Z,72.83
2019-05-16T19:07:51.904Z,72.79
2019-05-16T19:12:56.526Z,72.85
2019-05-16T19:17:58.660Z,72.95
2019-05-16T19:23:00.495Z,72.87
2019-05-16T19:28:02.047Z,72.87
2019-05-16T19:33:03.707Z,72.94
2019-05-16T19:38:06.696Z,73.00
2019-05-16T19:43:08.647Z,73.20
2019-05-16T19:48:10.199Z,73.13
2019-05-16T19:53:11.819Z,73.08
2019-05-16T19:58:13.404Z,73.05
2019-05-16T20:03:17.103Z,73.00
2019-05-16T20:08:18.683Z,72.76
2019-05-16T20:13:22.791Z,72.79
2019-05-16T20:18:24.367Z,72.79
2019-05-16T20:23:27.669Z,72.81
2019-05-16T20:28:29.495Z,72.82
2019-05-16T20:33:32.236Z,72.80
2019-05-16T20:38:33.823Z,72.88
2019-05-16T20:43:36.811Z,72.87
2019-05-16T20:48:38.531Z,72.79
2019-05-16T20:53:40.179Z,72.61
2019-05-16T20:58:41.738Z,72.55
2019-05-16T21:03:43.431Z,72.58
2019-05-16T21:08:46.316Z,72.79
2019-05-16T21:13:49.033Z,72.94
2019-05-16T21:18:50.795Z,72.87
2019-05-16T21:23:52.369Z,72.47
2019-05-16T21:28:53.919Z,72.41
2019-05-16T21:33:56.463Z,72.32
2019-05-16T21:38:58.530Z,72.35
2019-05-16T21:44:00.126Z,72.24
2019-05-16T21:49:01.683Z,72.36
2019-05-16T21:54:03.332Z,72.26
2019-05-16T21:59:06.965Z,72.16
2019-05-16T22:04:08.874Z,72.48
2019-05-16T22:09:10.557Z,72.42
2019-05-16T22:14:12.203Z,72.49
2019-05-16T22:19:13.857Z,72.28
2019-05-16T22:24:17.179Z,72.40
2019-05-16T22:29:19.102Z,72.40
2019-05-16T22:34:20.640Z,72.44
2019-05-16T22:39:22.387Z,72.33
2019-05-16T22:44:23.939Z,72.63
2019-05-16T22:49:27.495Z,72.42
2019-05-16T22:54:29.015Z,72.39
2019-05-16T22:59:30.583Z,72.42
2019-05-16T23:04:32.248Z,72.37
2019-05-16T23:09:33.832Z,72.37
2019-05-16T23:14:35.406Z,72.60
2019-05-16T23:19:36.995Z,72.62
2019-05-16T23:24:38.546Z,72.79
2019-05-16T23:29:40.112Z,72.57
2019-05-16T23:34:41.746Z,72.49
2019-05-16T23:39:43.302Z,72.50
2019-05-16T23:44:47.196Z,72.48
2019-05-16T23:49:48.444Z,72.55
2019-05-16T23:54:51.647Z,72.56
2019-05-16T23:59:53.303Z,72.66
